sensor_id;sensor_type;location;lat;lon;timestamp;P1;durP1;ratioP1;P2;durP2;ratioP2
20445;SDS011;10382;49.140;9.234;2023-11-19T00:00:51;4.33;;;3.93;;
20445;SDS011;10382;49.140;9.234;2023-11-19T00:03:18;3.53;;;3.23;;
20445;SDS011;10382;49.140;9.234;2023-11-19T00:05:45;4.57;;;3.90;;
20445;SDS011;10382;49.140;9.234;2023-11-19T00:08:13;3.23;;;3.03;;
20445;SDS011;10382;49.140;9.234;2023-11-19T00:10:39;5.17;;;3.03;;
20445;SDS011;10382;49.140;9.234;2023-11-19T00:13:06;3.97;;;3.60;;
20445;SDS011;10382;49.140;9.234;2023-11-19T00:15:35;2.97;;;2.77;;
20445;SDS011;10382;49.140;9.234;2023-11-19T00:18:03;2.83;;;2.50;;
20445;SDS011;10382;49.140;9.234;2023-11-19T00:20:30;3.83;;;3.53;;
20445;SDS011;10382;49.140;9.234;2023-11-19T00:22:58;4.73;;;3.43;;
20445;SDS011;10382;49.140;9.234;2023-11-19T00:25:26;3.27;;;2.83;;
20445;SDS011;10382;49.140;9.234;2023-11-19T00:27:53;4.50;;;2.87;;
20445;SDS011;10382;49.140;9.234;2023-11-19T00:30:21;6.37;;;3.73;;
20445;SDS011;10382;49.140;9.234;2023-11-19T00:32:48;4.67;;;3.63;;
20445;SDS011;10382;49.140;9.234;2023-11-19T00:35:16;4.70;;;3.40;;
20445;SDS011;10382;49.140;9.234;2023-11-19T00:37:43;6.83;;;3.40;;
20445;SDS011;10382;49.140;9.234;2023-11-19T00:40:12;3.93;;;3.10;;
20445;SDS011;10382;49.140;9.234;2023-11-19T00:42:41;7.63;;;3.63;;
20445;SDS011;10382;49.140;9.234;2023-11-19T00:45:08;3.90;;;3.50;;
20445;SDS011;10382;49.140;9.234;2023-11-19T00:47:37;4.00;;;3.70;;
20445;SDS011;10382;49.140;9.234;2023-11-19T00:50:04;3.03;;;2.83;;
20445;SDS011;10382;49.140;9.234;2023-11-19T00:52:35;3.53;;;3.33;;
20445;SDS011;10382;49.140;9.234;2023-11-19T00:55:03;4.90;;;4.10;;
20445;SDS011;10382;49.140;9.234;2023-11-19T00:57:30;4.73;;;4.20;;
20445;SDS011;10382;49.140;9.234;2023-11-19T00:59:58;4.53;;;3.50;;
20445;SDS011;10382;49.140;9.234;2023-11-19T01:02:25;3.03;;;2.90;;
20445;SDS011;10382;49.140;9.234;2023-11-19T01:04:52;4.53;;;4.07;;
20445;SDS011;10382;49.140;9.234;2023-11-19T01:07:18;4.07;;;3.67;;
20445;SDS011;10382;49.140;9.234;2023-11-19T01:09:48;4.80;;;3.80;;
20445;SDS011;10382;49.140;9.234;2023-11-19T01:12:15;4.40;;;4.10;;
20445;SDS011;10382;49.140;9.234;2023-11-19T01:14:42;7.20;;;6.30;;
20445;SDS011;10382;49.140;9.234;2023-11-19T01:17:09;4.73;;;4.17;;
20445;SDS011;10382;49.140;9.234;2023-11-19T01:19:36;3.70;;;3.40;;
20445;SDS011;10382;49.140;9.234;2023-11-19T01:22:03;5.43;;;3.87;;
20445;SDS011;10382;49.140;9.234;2023-11-19T01:24:30;4.70;;;4.17;;
20445;SDS011;10382;49.140;9.234;2023-11-19T01:26:58;4.90;;;4.20;;
20445;SDS011;10382;49.140;9.234;2023-11-19T01:29:25;4.27;;;3.50;;
20445;SDS011;10382;49.140;9.234;2023-11-19T01:31:52;7.70;;;4.07;;
20445;SDS011;10382;49.140;9.234;2023-11-19T01:34:18;5.67;;;4.37;;
20445;SDS011;10382;49.140;9.234;2023-11-19T01:36:46;4.37;;;3.37;;
20445;SDS011;10382;49.140;9.234;2023-11-19T01:39:13;3.93;;;3.50;;
20445;SDS011;10382;49.140;9.234;2023-11-19T01:41:42;6.03;;;4.13;;
20445;SDS011;10382;49.140;9.234;2023-11-19T01:44:10;8.67;;;4.80;;
20445;SDS011;10382;49.140;9.234;2023-11-19T01:46:38;9.17;;;5.20;;
20445;SDS011;10382;49.140;9.234;2023-11-19T01:49:08;6.00;;;4.63;;
20445;SDS011;10382;49.140;9.234;2023-11-19T01:51:36;4.77;;;4.33;;
20445;SDS011;10382;49.140;9.234;2023-11-19T01:54:05;4.30;;;3.90;;
20445;SDS011;10382;49.140;9.234;2023-11-19T01:56:33;5.10;;;4.07;;
20445;SDS011;10382;49.140;9.234;2023-11-19T01:59:00;4.33;;;4.07;;
20445;SDS011;10382;49.140;9.234;2023-11-19T02:01:29;6.17;;;4.00;;
20445;SDS011;10382;49.140;9.234;2023-11-19T02:03:57;5.80;;;4.67;;
20445;SDS011;10382;49.140;9.234;2023-11-19T02:06:24;3.50;;;3.27;;
20445;SDS011;10382;49.140;9.234;2023-11-19T02:08:53;3.90;;;3.70;;
20445;SDS011;10382;49.140;9.234;2023-11-19T02:11:20;6.10;;;5.33;;
20445;SDS011;10382;49.140;9.234;2023-11-19T02:13:47;7.27;;;4.90;;
20445;SDS011;10382;49.140;9.234;2023-11-19T02:16:14;13.60;;;5.50;;
20445;SDS011;10382;49.140;9.234;2023-11-19T02:18:42;7.20;;;5.07;;
20445;SDS011;10382;49.140;9.234;2023-11-19T02:21:09;5.50;;;5.00;;
20445;SDS011;10382;49.140;9.234;2023-11-19T02:23:36;6.67;;;5.60;;
20445;SDS011;10382;49.140;9.234;2023-11-19T02:26:05;8.13;;;6.07;;
20445;SDS011;10382;49.140;9.234;2023-11-19T02:28:41;8.67;;;5.37;;
20445;SDS011;10382;49.140;9.234;2023-11-19T02:31:08;5.80;;;5.30;;
20445;SDS011;10382;49.140;9.234;2023-11-19T02:33:35;7.33;;;6.63;;
20445;SDS011;10382;49.140;9.234;2023-11-19T02:36:02;5.57;;;5.07;;
20445;SDS011;10382;49.140;9.234;2023-11-19T02:38:30;6.93;;;5.87;;
20445;SDS011;10382;49.140;9.234;2023-11-19T02:40:56;7.10;;;6.40;;
20445;SDS011;10382;49.140;9.234;2023-11-19T02:43:23;10.10;;;6.97;;
20445;SDS011;10382;49.140;9.234;2023-11-19T02:45:52;7.50;;;6.27;;
20445;SDS011;10382;49.140;9.234;2023-11-19T02:48:20;8.00;;;6.53;;
20445;SDS011;10382;49.140;9.234;2023-11-19T02:50:47;8.07;;;6.37;;
20445;SDS011;10382;49.140;9.234;2023-11-19T02:53:14;7.33;;;6.60;;
20445;SDS011;10382;49.140;9.234;2023-11-19T02:55:41;11.20;;;6.90;;
20445;SDS011;10382;49.140;9.234;2023-11-19T02:58:13;7.50;;;5.93;;
20445;SDS011;10382;49.140;9.234;2023-11-19T03:00:48;8.43;;;6.37;;
20445;SDS011;10382;49.140;9.234;2023-11-19T03:03:23;6.70;;;5.33;;
20445;SDS011;10382;49.140;9.234;2023-11-19T03:05:55;6.00;;;5.37;;
20445;SDS011;10382;49.140;9.234;2023-11-19T03:08:23;10.37;;;6.83;;
20445;SDS011;10382;49.140;9.234;2023-11-19T03:10:49;8.07;;;7.03;;
20445;SDS011;10382;49.140;9.234;2023-11-19T03:13:16;6.60;;;5.70;;
20445;SDS011;10382;49.140;9.234;2023-11-19T03:15:43;5.80;;;5.20;;
20445;SDS011;10382;49.140;9.234;2023-11-19T03:18:11;4.83;;;4.37;;
20445;SDS011;10382;49.140;9.234;2023-11-19T03:20:39;6.50;;;5.90;;
20445;SDS011;10382;49.140;9.234;2023-11-19T03:23:05;6.40;;;4.50;;
20445;SDS011;10382;49.140;9.234;2023-11-19T03:25:32;5.83;;;5.33;;
20445;SDS011;10382;49.140;9.234;2023-11-19T03:28:01;3.90;;;3.50;;
20445;SDS011;10382;49.140;9.234;2023-11-19T03:30:28;4.10;;;3.80;;
20445;SDS011;10382;49.140;9.234;2023-11-19T03:32:55;4.03;;;3.67;;
20445;SDS011;10382;49.140;9.234;2023-11-19T03:35:22;3.43;;;3.20;;
20445;SDS011;10382;49.140;9.234;2023-11-19T03:37:51;9.43;;;5.33;;
20445;SDS011;10382;49.140;9.234;2023-11-19T03:40:18;4.53;;;4.23;;
20445;SDS011;10382;49.140;9.234;2023-11-19T03:42:45;4.10;;;3.60;;
20445;SDS011;10382;49.140;9.234;2023-11-19T03:45:12;7.63;;;3.97;;
20445;SDS011;10382;49.140;9.234;2023-11-19T03:47:39;3.90;;;3.67;;
20445;SDS011;10382;49.140;9.234;2023-11-19T03:50:06;2.67;;;2.50;;
20445;SDS011;10382;49.140;9.234;2023-11-19T03:52:34;2.13;;;2.03;;
20445;SDS011;10382;49.140;9.234;2023-11-19T03:55:02;3.00;;;2.87;;
20445;SDS011;10382;49.140;9.234;2023-11-19T03:57:30;2.07;;;1.97;;
20445;SDS011;10382;49.140;9.234;2023-11-19T03:59:57;2.00;;;1.90;;
20445;SDS011;10382;49.140;9.234;2023-11-19T04:02:24;3.20;;;1.63;;
20445;SDS011;10382;49.140;9.234;2023-11-19T04:04:53;1.53;;;1.43;;
20445;SDS011;10382;49.140;9.234;2023-11-19T04:07:21;1.20;;;1.20;;
20445;SDS011;10382;49.140;9.234;2023-11-19T04:09:48;1.70;;;1.60;;
20445;SDS011;10382;49.140;9.234;2023-11-19T04:12:16;1.20;;;1.20;;
20445;SDS011;10382;49.140;9.234;2023-11-19T04:14:43;1.37;;;1.37;;
20445;SDS011;10382;49.140;9.234;2023-11-19T04:17:10;4.93;;;2.80;;
20445;SDS011;10382;49.140;9.234;2023-11-19T04:19:37;1.40;;;1.37;;
20445;SDS011;10382;49.140;9.234;2023-11-19T04:22:06;1.07;;;1.07;;
20445;SDS011;10382;49.140;9.234;2023-11-19T04:24:33;2.77;;;1.33;;
20445;SDS011;10382;49.140;9.234;2023-11-19T04:27:00;3.80;;;1.70;;
20445;SDS011;10382;49.140;9.234;2023-11-19T04:29:28;1.80;;;1.70;;
20445;SDS011;10382;49.140;9.234;2023-11-19T04:31:56;1.90;;;1.40;;
20445;SDS011;10382;49.140;9.234;2023-11-19T04:34:23;1.70;;;1.60;;
20445;SDS011;10382;49.140;9.234;2023-11-19T04:36:51;1.87;;;1.77;;
20445;SDS011;10382;49.140;9.234;2023-11-19T04:39:17;1.40;;;1.40;;
20445;SDS011;10382;49.140;9.234;2023-11-19T04:41:48;1.80;;;1.70;;
20445;SDS011;10382;49.140;9.234;2023-11-19T04:44:16;1.70;;;1.60;;
20445;SDS011;10382;49.140;9.234;2023-11-19T04:46:45;1.63;;;1.60;;
20445;SDS011;10382;49.140;9.234;2023-11-19T04:49:12;2.40;;;1.63;;
20445;SDS011;10382;49.140;9.234;2023-11-19T04:51:40;2.90;;;2.80;;
20445;SDS011;10382;49.140;9.234;2023-11-19T04:54:07;1.90;;;1.80;;
20445;SDS011;10382;49.140;9.234;2023-11-19T04:56:34;1.97;;;1.87;;
20445;SDS011;10382;49.140;9.234;2023-11-19T04:59:03;1.83;;;1.80;;
20445;SDS011;10382;49.140;9.234;2023-11-19T05:01:31;1.63;;;1.60;;
20445;SDS011;10382;49.140;9.234;2023-11-19T05:03:59;1.57;;;1.57;;
20445;SDS011;10382;49.140;9.234;2023-11-19T05:06:27;1.40;;;1.40;;
20445;SDS011;10382;49.140;9.234;2023-11-19T05:08:54;1.77;;;1.67;;
20445;SDS011;10382;49.140;9.234;2023-11-19T05:11:21;1.17;;;1.03;;
20445;SDS011;10382;49.140;9.234;2023-11-19T05:13:48;2.57;;;2.40;;
20445;SDS011;10382;49.140;9.234;2023-11-19T05:16:15;2.33;;;1.47;;
20445;SDS011;10382;49.140;9.234;2023-11-19T05:18:42;1.73;;;1.63;;
20445;SDS011;10382;49.140;9.234;2023-11-19T05:21:11;3.20;;;1.10;;
20445;SDS011;10382;49.140;9.234;2023-11-19T05:23:38;2.13;;;1.20;;
20445;SDS011;10382;49.140;9.234;2023-11-19T05:26:07;2.13;;;1.53;;
20445;SDS011;10382;49.140;9.234;2023-11-19T05:28:35;1.17;;;1.17;;
20445;SDS011;10382;49.140;9.234;2023-11-19T05:31:04;0.97;;;0.97;;
20445;SDS011;10382;49.140;9.234;2023-11-19T05:33:32;1.37;;;1.17;;
20445;SDS011;10382;49.140;9.234;2023-11-19T05:35:58;0.97;;;0.97;;
20445;SDS011;10382;49.140;9.234;2023-11-19T05:38:29;1.73;;;1.63;;
20445;SDS011;10382;49.140;9.234;2023-11-19T05:40:56;0.80;;;0.80;;
20445;SDS011;10382;49.140;9.234;2023-11-19T05:43:23;1.13;;;1.13;;
20445;SDS011;10382;49.140;9.234;2023-11-19T05:45:50;1.20;;;1.20;;
20445;SDS011;10382;49.140;9.234;2023-11-19T05:48:17;1.57;;;1.47;;
20445;SDS011;10382;49.140;9.234;2023-11-19T05:50:43;1.33;;;1.33;;
20445;SDS011;10382;49.140;9.234;2023-11-19T05:53:11;2.00;;;1.30;;
20445;SDS011;10382;49.140;9.234;2023-11-19T05:55:41;1.37;;;1.00;;
20445;SDS011;10382;49.140;9.234;2023-11-19T05:58:13;1.57;;;1.03;;
20445;SDS011;10382;49.140;9.234;2023-11-19T06:00:41;2.57;;;1.77;;
20445;SDS011;10382;49.140;9.234;2023-11-19T06:03:08;3.00;;;1.17;;
20445;SDS011;10382;49.140;9.234;2023-11-19T06:05:35;1.20;;;1.20;;
20445;SDS011;10382;49.140;9.234;2023-11-19T06:08:02;1.77;;;1.40;;
20445;SDS011;10382;49.140;9.234;2023-11-19T06:10:29;1.10;;;1.10;;
20445;SDS011;10382;49.140;9.234;2023-11-19T06:12:58;1.20;;;1.20;;
20445;SDS011;10382;49.140;9.234;2023-11-19T06:15:29;1.90;;;1.40;;
20445;SDS011;10382;49.140;9.234;2023-11-19T06:17:57;5.23;;;1.90;;
20445;SDS011;10382;49.140;9.234;2023-11-19T06:20:26;1.30;;;1.20;;
20445;SDS011;10382;49.140;9.234;2023-11-19T06:22:54;2.03;;;1.93;;
20445;SDS011;10382;49.140;9.234;2023-11-19T06:25:21;1.23;;;1.23;;
20445;SDS011;10382;49.140;9.234;2023-11-19T06:27:49;3.43;;;1.40;;
20445;SDS011;10382;49.140;9.234;2023-11-19T06:30:17;1.73;;;1.50;;
20445;SDS011;10382;49.140;9.234;2023-11-19T06:32:44;2.20;;;1.50;;
20445;SDS011;10382;49.140;9.234;2023-11-19T06:35:11;1.43;;;1.33;;
20445;SDS011;10382;49.140;9.234;2023-11-19T06:37:39;3.00;;;1.90;;
20445;SDS011;10382;49.140;9.234;2023-11-19T06:40:06;1.17;;;1.17;;
20445;SDS011;10382;49.140;9.234;2023-11-19T06:42:34;1.23;;;1.20;;
20445;SDS011;10382;49.140;9.234;2023-11-19T06:45:01;1.00;;;1.00;;
20445;SDS011;10382;49.140;9.234;2023-11-19T06:47:30;1.10;;;1.10;;
20445;SDS011;10382;49.140;9.234;2023-11-19T06:49:56;1.50;;;1.40;;
20445;SDS011;10382;49.140;9.234;2023-11-19T06:52:24;1.43;;;1.37;;
20445;SDS011;10382;49.140;9.234;2023-11-19T06:54:51;1.13;;;1.13;;
20445;SDS011;10382;49.140;9.234;2023-11-19T06:57:17;1.50;;;1.20;;
20445;SDS011;10382;49.140;9.234;2023-11-19T06:59:45;1.70;;;1.60;;
20445;SDS011;10382;49.140;9.234;2023-11-19T07:02:12;1.77;;;1.67;;
20445;SDS011;10382;49.140;9.234;2023-11-19T07:04:40;3.73;;;3.43;;
20445;SDS011;10382;49.140;9.234;2023-11-19T07:07:07;0.93;;;0.93;;
20445;SDS011;10382;49.140;9.234;2023-11-19T07:09:34;9.50;;;1.40;;
20445;SDS011;10382;49.140;9.234;2023-11-19T07:12:02;0.90;;;0.90;;
20445;SDS011;10382;49.140;9.234;2023-11-19T07:14:29;3.40;;;1.40;;
20445;SDS011;10382;49.140;9.234;2023-11-19T07:16:56;1.40;;;1.30;;
20445;SDS011;10382;49.140;9.234;2023-11-19T07:19:23;1.90;;;1.60;;
20445;SDS011;10382;49.140;9.234;2023-11-19T07:21:51;1.53;;;1.43;;
20445;SDS011;10382;49.140;9.234;2023-11-19T07:24:19;2.70;;;1.87;;
20445;SDS011;10382;49.140;9.234;2023-11-19T07:26:46;2.20;;;1.90;;
20445;SDS011;10382;49.140;9.234;2023-11-19T07:29:14;2.30;;;2.10;;
20445;SDS011;10382;49.140;9.234;2023-11-19T07:31:41;2.40;;;1.80;;
20445;SDS011;10382;49.140;9.234;2023-11-19T07:34:09;1.80;;;1.70;;
20445;SDS011;10382;49.140;9.234;2023-11-19T07:36:37;2.70;;;1.50;;
20445;SDS011;10382;49.140;9.234;2023-11-19T07:39:05;1.27;;;1.23;;
20445;SDS011;10382;49.140;9.234;2023-11-19T07:41:33;2.50;;;1.30;;
20445;SDS011;10382;49.140;9.234;2023-11-19T07:44:00;1.77;;;1.63;;
20445;SDS011;10382;49.140;9.234;2023-11-19T07:46:27;1.60;;;1.50;;
20445;SDS011;10382;49.140;9.234;2023-11-19T07:48:54;2.80;;;2.50;;
20445;SDS011;10382;49.140;9.234;2023-11-19T07:51:20;1.30;;;1.20;;
20445;SDS011;10382;49.140;9.234;2023-11-19T07:53:47;3.60;;;2.30;;
20445;SDS011;10382;49.140;9.234;2023-11-19T07:56:16;2.00;;;1.10;;
20445;SDS011;10382;49.140;9.234;2023-11-19T07:58:42;2.43;;;2.23;;
20445;SDS011;10382;49.140;9.234;2023-11-19T08:01:09;1.87;;;1.77;;
20445;SDS011;10382;49.140;9.234;2023-11-19T08:03:36;16.23;;;2.00;;
20445;SDS011;10382;49.140;9.234;2023-11-19T08:06:03;3.90;;;1.77;;
20445;SDS011;10382;49.140;9.234;2023-11-19T08:08:32;2.97;;;1.40;;
20445;SDS011;10382;49.140;9.234;2023-11-19T08:10:59;2.10;;;2.00;;
20445;SDS011;10382;49.140;9.234;2023-11-19T08:13:27;2.30;;;1.97;;
20445;SDS011;10382;49.140;9.234;2023-11-19T08:15:54;2.50;;;2.00;;
20445;SDS011;10382;49.140;9.234;2023-11-19T08:18:21;5.77;;;1.60;;
20445;SDS011;10382;49.140;9.234;2023-11-19T08:20:48;2.10;;;2.00;;
20445;SDS011;10382;49.140;9.234;2023-11-19T08:23:18;1.13;;;1.13;;
20445;SDS011;10382;49.140;9.234;2023-11-19T08:25:45;1.70;;;1.60;;
20445;SDS011;10382;49.140;9.234;2023-11-19T08:28:12;3.33;;;1.77;;
20445;SDS011;10382;49.140;9.234;2023-11-19T08:30:41;2.40;;;1.90;;
20445;SDS011;10382;49.140;9.234;2023-11-19T08:33:09;4.67;;;1.47;;
20445;SDS011;10382;49.140;9.234;2023-11-19T08:35:36;4.87;;;1.97;;
20445;SDS011;10382;49.140;9.234;2023-11-19T08:38:03;2.37;;;1.60;;
20445;SDS011;10382;49.140;9.234;2023-11-19T08:40:30;4.40;;;1.90;;
20445;SDS011;10382;49.140;9.234;2023-11-19T08:42:57;6.90;;;2.40;;
20445;SDS011;10382;49.140;9.234;2023-11-19T08:45:24;1.57;;;1.57;;
20445;SDS011;10382;49.140;9.234;2023-11-19T08:47:52;6.90;;;1.97;;
20445;SDS011;10382;49.140;9.234;2023-11-19T08:50:20;2.23;;;2.07;;
20445;SDS011;10382;49.140;9.234;2023-11-19T08:52:47;3.23;;;1.53;;
20445;SDS011;10382;49.140;9.234;2023-11-19T08:55:13;1.43;;;1.43;;
20445;SDS011;10382;49.140;9.234;2023-11-19T08:57:40;5.07;;;1.67;;
20445;SDS011;10382;49.140;9.234;2023-11-19T09:00:07;6.10;;;1.63;;
20445;SDS011;10382;49.140;9.234;2023-11-19T09:02:34;3.47;;;1.47;;
20445;SDS011;10382;49.140;9.234;2023-11-19T09:05:03;2.23;;;1.73;;
20445;SDS011;10382;49.140;9.234;2023-11-19T09:07:32;1.00;;;1.00;;
20445;SDS011;10382;49.140;9.234;2023-11-19T09:09:59;5.83;;;1.30;;
20445;SDS011;10382;49.140;9.234;2023-11-19T09:12:26;2.00;;;1.70;;
20445;SDS011;10382;49.140;9.234;2023-11-19T09:14:53;1.50;;;1.27;;
20445;SDS011;10382;49.140;9.234;2023-11-19T09:17:20;1.30;;;1.30;;
20445;SDS011;10382;49.140;9.234;2023-11-19T09:19:46;3.90;;;1.80;;
20445;SDS011;10382;49.140;9.234;2023-11-19T09:22:15;2.93;;;1.57;;
20445;SDS011;10382;49.140;9.234;2023-11-19T09:24:41;1.57;;;1.47;;
20445;SDS011;10382;49.140;9.234;2023-11-19T09:27:09;1.20;;;1.20;;
20445;SDS011;10382;49.140;9.234;2023-11-19T09:29:36;2.53;;;2.33;;
20445;SDS011;10382;49.140;9.234;2023-11-19T09:32:03;8.83;;;1.30;;
20445;SDS011;10382;49.140;9.234;2023-11-19T09:34:31;2.77;;;1.73;;
20445;SDS011;10382;49.140;9.234;2023-11-19T09:36:58;2.23;;;1.13;;
20445;SDS011;10382;49.140;9.234;2023-11-19T09:39:26;3.73;;;1.90;;
20445;SDS011;10382;49.140;9.234;2023-11-19T09:41:54;6.60;;;1.77;;
20445;SDS011;10382;49.140;9.234;2023-11-19T09:44:20;2.20;;;2.00;;
20445;SDS011;10382;49.140;9.234;2023-11-19T09:46:47;2.97;;;2.03;;
20445;SDS011;10382;49.140;9.234;2023-11-19T09:49:14;3.27;;;1.53;;
20445;SDS011;10382;49.140;9.234;2023-11-19T09:51:47;3.97;;;2.00;;
20445;SDS011;10382;49.140;9.234;2023-11-19T09:54:14;4.87;;;1.50;;
20445;SDS011;10382;49.140;9.234;2023-11-19T09:56:42;6.37;;;1.60;;
20445;SDS011;10382;49.140;9.234;2023-11-19T09:59:10;1.60;;;1.37;;
20445;SDS011;10382;49.140;9.234;2023-11-19T10:01:37;2.20;;;2.00;;
20445;SDS011;10382;49.140;9.234;2023-11-19T10:04:05;4.93;;;1.57;;
20445;SDS011;10382;49.140;9.234;2023-11-19T10:06:33;3.30;;;1.67;;
20445;SDS011;10382;49.140;9.234;2023-11-19T10:09:00;1.97;;;1.87;;
20445;SDS011;10382;49.140;9.234;2023-11-19T10:11:29;2.73;;;1.73;;
20445;SDS011;10382;49.140;9.234;2023-11-19T10:13:58;1.80;;;1.63;;
20445;SDS011;10382;49.140;9.234;2023-11-19T10:16:28;1.10;;;1.10;;
20445;SDS011;10382;49.140;9.234;2023-11-19T10:18:56;2.30;;;1.30;;
20445;SDS011;10382;49.140;9.234;2023-11-19T10:21:23;2.47;;;1.50;;
20445;SDS011;10382;49.140;9.234;2023-11-19T10:23:53;1.73;;;1.60;;
20445;SDS011;10382;49.140;9.234;2023-11-19T10:26:22;1.33;;;1.23;;
20445;SDS011;10382;49.140;9.234;2023-11-19T10:28:49;2.50;;;1.60;;
20445;SDS011;10382;49.140;9.234;2023-11-19T10:31:18;1.70;;;1.60;;
20445;SDS011;10382;49.140;9.234;2023-11-19T10:33:48;1.93;;;1.83;;
20445;SDS011;10382;49.140;9.234;2023-11-19T10:36:15;1.43;;;1.20;;
20445;SDS011;10382;49.140;9.234;2023-11-19T10:38:51;2.03;;;1.80;;
20445;SDS011;10382;49.140;9.234;2023-11-19T10:41:26;6.33;;;1.63;;
20445;SDS011;10382;49.140;9.234;2023-11-19T10:43:53;2.40;;;1.63;;
20445;SDS011;10382;49.140;9.234;2023-11-19T10:46:21;1.67;;;1.57;;
20445;SDS011;10382;49.140;9.234;2023-11-19T10:48:48;2.10;;;2.00;;
20445;SDS011;10382;49.140;9.234;2023-11-19T10:51:18;1.57;;;1.47;;
20445;SDS011;10382;49.140;9.234;2023-11-19T10:53:48;3.70;;;2.47;;
20445;SDS011;10382;49.140;9.234;2023-11-19T10:56:16;7.97;;;1.70;;
20445;SDS011;10382;49.140;9.234;2023-11-19T10:58:46;4.07;;;2.23;;
20445;SDS011;10382;49.140;9.234;2023-11-19T11:01:18;3.57;;;2.43;;
20445;SDS011;10382;49.140;9.234;2023-11-19T11:03:48;3.30;;;2.17;;
20445;SDS011;10382;49.140;9.234;2023-11-19T11:06:18;2.73;;;2.10;;
20445;SDS011;10382;49.140;9.234;2023-11-19T11:08:47;5.27;;;3.30;;
20445;SDS011;10382;49.140;9.234;2023-11-19T11:11:15;3.13;;;2.20;;
20445;SDS011;10382;49.140;9.234;2023-11-19T11:13:46;7.20;;;3.27;;
20445;SDS011;10382;49.140;9.234;2023-11-19T11:16:15;2.73;;;2.03;;
20445;SDS011;10382;49.140;9.234;2023-11-19T11:18:45;3.10;;;2.23;;
20445;SDS011;10382;49.140;9.234;2023-11-19T11:21:16;2.83;;;2.47;;
20445;SDS011;10382;49.140;9.234;2023-11-19T11:23:56;7.17;;;2.70;;
20445;SDS011;10382;49.140;9.234;2023-11-19T11:26:38;2.63;;;2.10;;
20445;SDS011;10382;49.140;9.234;2023-11-19T11:29:22;1.73;;;1.60;;
20445;SDS011;10382;49.140;9.234;2023-11-19T11:31:55;2.20;;;1.90;;
20445;SDS011;10382;49.140;9.234;2023-11-19T11:34:38;8.10;;;1.77;;
20445;SDS011;10382;49.140;9.234;2023-11-19T11:37:30;5.07;;;1.90;;
20445;SDS011;10382;49.140;9.234;2023-11-19T11:40:00;3.30;;;2.50;;
20445;SDS011;10382;49.140;9.234;2023-11-19T11:42:31;2.60;;;1.77;;
20445;SDS011;10382;49.140;9.234;2023-11-19T11:44:59;1.80;;;1.70;;
20445;SDS011;10382;49.140;9.234;2023-11-19T11:47:34;5.00;;;1.80;;
20445;SDS011;10382;49.140;9.234;2023-11-19T11:50:51;2.40;;;1.90;;
20445;SDS011;10382;49.140;9.234;2023-11-19T11:53:21;2.43;;;2.23;;
20445;SDS011;10382;49.140;9.234;2023-11-19T11:55:53;14.10;;;3.17;;
20445;SDS011;10382;49.140;9.234;2023-11-19T11:58:28;2.07;;;1.70;;
20445;SDS011;10382;49.140;9.234;2023-11-19T12:00:57;10.70;;;2.40;;
20445;SDS011;10382;49.140;9.234;2023-11-19T12:03:27;3.47;;;2.00;;
20445;SDS011;10382;49.140;9.234;2023-11-19T12:05:55;4.10;;;2.77;;
20445;SDS011;10382;49.140;9.234;2023-11-19T12:08:26;2.23;;;2.03;;
20445;SDS011;10382;49.140;9.234;2023-11-19T12:10:55;8.77;;;3.60;;
20445;SDS011;10382;49.140;9.234;2023-11-19T12:13:24;3.23;;;2.53;;
20445;SDS011;10382;49.140;9.234;2023-11-19T12:16:08;5.00;;;2.30;;
20445;SDS011;10382;49.140;9.234;2023-11-19T12:18:36;2.47;;;1.77;;
20445;SDS011;10382;49.140;9.234;2023-11-19T12:21:06;3.70;;;2.63;;
20445;SDS011;10382;49.140;9.234;2023-11-19T12:23:37;2.23;;;1.83;;
20445;SDS011;10382;49.140;9.234;2023-11-19T12:29:06;4.47;;;2.47;;
20445;SDS011;10382;49.140;9.234;2023-11-19T12:31:33;2.50;;;2.00;;
20445;SDS011;10382;49.140;9.234;2023-11-19T12:34:06;2.27;;;1.97;;
20445;SDS011;10382;49.140;9.234;2023-11-19T12:36:36;1.73;;;1.63;;
20445;SDS011;10382;49.140;9.234;2023-11-19T12:39:06;5.17;;;1.63;;
20445;SDS011;10382;49.140;9.234;2023-11-19T12:41:33;2.57;;;2.37;;
20445;SDS011;10382;49.140;9.234;2023-11-19T12:44:15;4.57;;;3.13;;
20445;SDS011;10382;49.140;9.234;2023-11-19T12:46:42;3.30;;;2.67;;
20445;SDS011;10382;49.140;9.234;2023-11-19T12:49:10;2.37;;;2.17;;
20445;SDS011;10382;49.140;9.234;2023-11-19T12:51:38;2.57;;;2.27;;
20445;SDS011;10382;49.140;9.234;2023-11-19T12:54:06;5.50;;;2.30;;
20445;SDS011;10382;49.140;9.234;2023-11-19T12:56:32;2.70;;;2.20;;
20445;SDS011;10382;49.140;9.234;2023-11-19T12:59:09;2.13;;;1.97;;
20445;SDS011;10382;49.140;9.234;2023-11-19T13:01:38;2.27;;;2.00;;
20445;SDS011;10382;49.140;9.234;2023-11-19T13:04:15;2.60;;;2.03;;
20445;SDS011;10382;49.140;9.234;2023-11-19T13:06:44;5.47;;;2.70;;
20445;SDS011;10382;49.140;9.234;2023-11-19T13:09:22;3.70;;;2.13;;
20445;SDS011;10382;49.140;9.234;2023-11-19T13:11:50;1.73;;;1.63;;
20445;SDS011;10382;49.140;9.234;2023-11-19T13:14:18;3.27;;;2.70;;
20445;SDS011;10382;49.140;9.234;2023-11-19T13:16:45;2.77;;;2.57;;
20445;SDS011;10382;49.140;9.234;2023-11-19T13:19:12;2.87;;;2.67;;
20445;SDS011;10382;49.140;9.234;2023-11-19T13:21:41;5.23;;;3.17;;
20445;SDS011;10382;49.140;9.234;2023-11-19T13:24:11;3.03;;;2.37;;
20445;SDS011;10382;49.140;9.234;2023-11-19T13:26:39;2.93;;;1.97;;
20445;SDS011;10382;49.140;9.234;2023-11-19T13:29:06;7.40;;;3.70;;
20445;SDS011;10382;49.140;9.234;2023-11-19T13:31:32;4.43;;;2.50;;
20445;SDS011;10382;49.140;9.234;2023-11-19T13:34:00;2.07;;;1.90;;
20445;SDS011;10382;49.140;9.234;2023-11-19T13:36:27;3.13;;;2.57;;
20445;SDS011;10382;49.140;9.234;2023-11-19T13:38:53;2.67;;;2.30;;
20445;SDS011;10382;49.140;9.234;2023-11-19T13:41:24;3.33;;;1.60;;
20445;SDS011;10382;49.140;9.234;2023-11-19T13:43:52;2.50;;;2.00;;
20445;SDS011;10382;49.140;9.234;2023-11-19T13:46:20;7.93;;;1.90;;
20445;SDS011;10382;49.140;9.234;2023-11-19T13:48:47;3.50;;;2.30;;
20445;SDS011;10382;49.140;9.234;2023-11-19T13:51:14;1.77;;;1.67;;
20445;SDS011;10382;49.140;9.234;2023-11-19T13:53:41;5.93;;;3.70;;
20445;SDS011;10382;49.140;9.234;2023-11-19T13:56:09;4.40;;;2.13;;
20445;SDS011;10382;49.140;9.234;2023-11-19T13:58:36;2.17;;;1.97;;
20445;SDS011;10382;49.140;9.234;2023-11-19T14:01:05;4.80;;;2.00;;
20445;SDS011;10382;49.140;9.234;2023-11-19T14:03:32;4.70;;;2.80;;
20445;SDS011;10382;49.140;9.234;2023-11-19T14:05:59;2.57;;;2.37;;
20445;SDS011;10382;49.140;9.234;2023-11-19T14:08:25;1.87;;;1.77;;
20445;SDS011;10382;49.140;9.234;2023-11-19T14:10:52;4.20;;;3.20;;
20445;SDS011;10382;49.140;9.234;2023-11-19T14:13:21;6.10;;;3.00;;
20445;SDS011;10382;49.140;9.234;2023-11-19T14:15:48;2.67;;;2.47;;
20445;SDS011;10382;49.140;9.234;2023-11-19T14:18:17;4.00;;;2.23;;
20445;SDS011;10382;49.140;9.234;2023-11-19T14:20:44;8.03;;;4.53;;
20445;SDS011;10382;49.140;9.234;2023-11-19T14:23:11;1.60;;;1.50;;
20445;SDS011;10382;49.140;9.234;2023-11-19T14:25:38;4.30;;;2.63;;
20445;SDS011;10382;49.140;9.234;2023-11-19T14:28:05;1.90;;;1.67;;
20445;SDS011;10382;49.140;9.234;2023-11-19T14:30:32;5.63;;;3.13;;
20445;SDS011;10382;49.140;9.234;2023-11-19T14:33:00;2.40;;;2.20;;
20445;SDS011;10382;49.140;9.234;2023-11-19T14:35:29;1.97;;;1.70;;
20445;SDS011;10382;49.140;9.234;2023-11-19T14:37:57;2.87;;;1.93;;
20445;SDS011;10382;49.140;9.234;2023-11-19T14:40:24;9.70;;;2.23;;
20445;SDS011;10382;49.140;9.234;2023-11-19T14:42:51;6.97;;;2.77;;
20445;SDS011;10382;49.140;9.234;2023-11-19T14:45:18;4.50;;;1.47;;
20445;SDS011;10382;49.140;9.234;2023-11-19T14:47:45;3.73;;;2.93;;
20445;SDS011;10382;49.140;9.234;2023-11-19T14:50:11;3.03;;;1.90;;
20445;SDS011;10382;49.140;9.234;2023-11-19T14:52:40;4.70;;;2.67;;
20445;SDS011;10382;49.140;9.234;2023-11-19T14:55:07;2.70;;;2.23;;
20445;SDS011;10382;49.140;9.234;2023-11-19T14:57:34;5.87;;;2.30;;